sensor_id;sensor_type;location;lat;lon;timestamp;P1;durP1;ratioP1;P2;durP2;ratioP2
75537;SDS011;64121;48.666;8.114;2023-05-29T00:02:18;6.88;;;4.10;;
75537;SDS011;64121;48.666;8.114;2023-05-29T00:04:45;8.88;;;4.63;;
75537;SDS011;64121;48.666;8.114;2023-05-29T00:07:10;9.15;;;4.22;;
75537;SDS011;64121;48.666;8.114;2023-05-29T00:09:35;6.65;;;3.53;;
75537;SDS011;64121;48.666;8.114;2023-05-29T00:12:01;7.50;;;4.00;;
75537;SDS011;64121;48.666;8.114;2023-05-29T00:14:26;5.85;;;3.90;;
75537;SDS011;64121;48.666;8.114;2023-05-29T00:16:52;7.95;;;4.90;;
75537;SDS011;64121;48.666;8.114;2023-05-29T00:19:17;6.82;;;4.22;;
75537;SDS011;64121;48.666;8.114;2023-05-29T00:21:44;7.05;;;4.18;;
75537;SDS011;64121;48.666;8.114;2023-05-29T00:24:09;7.82;;;4.10;;
75537;SDS011;64121;48.666;8.114;2023-05-29T00:26:34;7.20;;;3.88;;
75537;SDS011;64121;48.666;8.114;2023-05-29T00:29:00;7.25;;;4.05;;
75537;SDS011;64121;48.666;8.114;2023-05-29T00:31:25;6.47;;;4.03;;
75537;SDS011;64121;48.666;8.114;2023-05-29T00:33:50;6.65;;;3.80;;
75537;SDS011;64121;48.666;8.114;2023-05-29T00:36:16;9.00;;;4.25;;
75537;SDS011;64121;48.666;8.114;2023-05-29T00:38:42;7.63;;;3.58;;
75537;SDS011;64121;48.666;8.114;2023-05-29T00:41:08;7.57;;;4.43;;
75537;SDS011;64121;48.666;8.114;2023-05-29T00:43:38;8.43;;;4.00;;
75537;SDS011;64121;48.666;8.114;2023-05-29T00:46:04;7.10;;;3.92;;
75537;SDS011;64121;48.666;8.114;2023-05-29T00:48:29;6.47;;;3.80;;
75537;SDS011;64121;48.666;8.114;2023-05-29T00:50:55;6.53;;;3.55;;
75537;SDS011;64121;48.666;8.114;2023-05-29T00:53:21;7.55;;;4.28;;
75537;SDS011;64121;48.666;8.114;2023-05-29T00:55:49;7.80;;;4.20;;
75537;SDS011;64121;48.666;8.114;2023-05-29T00:58:15;5.35;;;3.63;;
75537;SDS011;64121;48.666;8.114;2023-05-29T01:00:41;7.53;;;3.30;;
75537;SDS011;64121;48.666;8.114;2023-05-29T01:03:06;5.72;;;3.80;;
75537;SDS011;64121;48.666;8.114;2023-05-29T01:05:33;5.95;;;3.80;;
75537;SDS011;64121;48.666;8.114;2023-05-29T01:07:59;6.72;;;3.38;;
75537;SDS011;64121;48.666;8.114;2023-05-29T01:10:25;6.55;;;3.72;;
75537;SDS011;64121;48.666;8.114;2023-05-29T01:12:54;6.30;;;3.42;;
75537;SDS011;64121;48.666;8.114;2023-05-29T01:15:29;6.32;;;3.97;;
75537;SDS011;64121;48.666;8.114;2023-05-29T01:18:06;7.32;;;3.40;;
75537;SDS011;64121;48.666;8.114;2023-05-29T01:23:07;8.30;;;3.90;;
75537;SDS011;64121;48.666;8.114;2023-05-29T01:25:56;7.63;;;3.78;;
75537;SDS011;64121;48.666;8.114;2023-05-29T01:28:31;7.70;;;4.10;;
75537;SDS011;64121;48.666;8.114;2023-05-29T01:31:02;6.03;;;3.83;;
75537;SDS011;64121;48.666;8.114;2023-05-29T01:33:29;6.72;;;3.92;;
75537;SDS011;64121;48.666;8.114;2023-05-29T01:35:54;7.45;;;3.83;;
75537;SDS011;64121;48.666;8.114;2023-05-29T01:38:19;7.38;;;3.83;;
75537;SDS011;64121;48.666;8.114;2023-05-29T01:40:45;7.60;;;4.10;;
75537;SDS011;64121;48.666;8.114;2023-05-29T01:43:11;5.47;;;4.00;;
75537;SDS011;64121;48.666;8.114;2023-05-29T01:45:39;6.75;;;3.95;;
75537;SDS011;64121;48.666;8.114;2023-05-29T01:48:05;6.15;;;4.30;;
75537;SDS011;64121;48.666;8.114;2023-05-29T01:50:31;6.05;;;3.58;;
75537;SDS011;64121;48.666;8.114;2023-05-29T01:52:56;7.38;;;4.28;;
75537;SDS011;64121;48.666;8.114;2023-05-29T01:55:22;8.10;;;4.30;;
75537;SDS011;64121;48.666;8.114;2023-05-29T01:57:47;8.30;;;4.30;;
75537;SDS011;64121;48.666;8.114;2023-05-29T02:00:14;8.10;;;4.70;;
75537;SDS011;64121;48.666;8.114;2023-05-29T02:02:43;5.03;;;3.45;;
75537;SDS011;64121;48.666;8.114;2023-05-29T02:05:09;6.93;;;4.15;;
75537;SDS011;64121;48.666;8.114;2023-05-29T02:07:35;7.57;;;4.20;;
75537;SDS011;64121;48.666;8.114;2023-05-29T02:10:00;6.97;;;3.83;;
75537;SDS011;64121;48.666;8.114;2023-05-29T02:12:25;6.78;;;4.15;;
75537;SDS011;64121;48.666;8.114;2023-05-29T02:14:51;6.43;;;3.95;;
75537;SDS011;64121;48.666;8.114;2023-05-29T02:17:16;7.03;;;4.18;;
75537;SDS011;64121;48.666;8.114;2023-05-29T02:19:43;9.40;;;5.03;;
75537;SDS011;64121;48.666;8.114;2023-05-29T02:22:08;7.63;;;4.00;;
75537;SDS011;64121;48.666;8.114;2023-05-29T02:24:33;9.55;;;4.10;;
75537;SDS011;64121;48.666;8.114;2023-05-29T02:26:58;7.88;;;4.20;;
75537;SDS011;64121;48.666;8.114;2023-05-29T02:29:24;9.20;;;4.60;;
75537;SDS011;64121;48.666;8.114;2023-05-29T02:31:49;7.65;;;4.50;;
75537;SDS011;64121;48.666;8.114;2023-05-29T02:34:14;6.80;;;4.85;;
75537;SDS011;64121;48.666;8.114;2023-05-29T02:36:41;6.50;;;4.20;;
75537;SDS011;64121;48.666;8.114;2023-05-29T02:39:07;6.90;;;4.30;;
75537;SDS011;64121;48.666;8.114;2023-05-29T02:41:32;7.97;;;4.30;;
75537;SDS011;64121;48.666;8.114;2023-05-29T02:43:57;6.07;;;4.18;;
75537;SDS011;64121;48.666;8.114;2023-05-29T02:46:23;5.70;;;4.13;;
75537;SDS011;64121;48.666;8.114;2023-05-29T02:48:48;6.25;;;4.65;;
75537;SDS011;64121;48.666;8.114;2023-05-29T02:51:13;6.50;;;4.22;;
75537;SDS011;64121;48.666;8.114;2023-05-29T02:53:40;7.82;;;4.88;;
75537;SDS011;64121;48.666;8.114;2023-05-29T02:56:06;6.03;;;3.95;;
75537;SDS011;64121;48.666;8.114;2023-05-29T02:58:32;8.38;;;4.78;;
75537;SDS011;64121;48.666;8.114;2023-05-29T03:00:57;6.78;;;4.35;;
75537;SDS011;64121;48.666;8.114;2023-05-29T03:03:23;7.28;;;4.28;;
75537;SDS011;64121;48.666;8.114;2023-05-29T03:05:48;7.03;;;4.40;;
75537;SDS011;64121;48.666;8.114;2023-05-29T03:08:13;6.35;;;3.95;;
75537;SDS011;64121;48.666;8.114;2023-05-29T03:10:40;6.53;;;4.00;;
75537;SDS011;64121;48.666;8.114;2023-05-29T03:13:05;8.75;;;4.85;;
75537;SDS011;64121;48.666;8.114;2023-05-29T03:15:31;6.63;;;4.07;;
75537;SDS011;64121;48.666;8.114;2023-05-29T03:17:56;9.35;;;4.43;;
75537;SDS011;64121;48.666;8.114;2023-05-29T03:20:21;8.75;;;5.13;;
75537;SDS011;64121;48.666;8.114;2023-05-29T03:22:47;8.68;;;4.40;;
75537;SDS011;64121;48.666;8.114;2023-05-29T03:25:12;8.65;;;4.32;;
75537;SDS011;64121;48.666;8.114;2023-05-29T03:27:39;9.57;;;4.57;;
75537;SDS011;64121;48.666;8.114;2023-05-29T03:30:05;6.88;;;4.20;;
75537;SDS011;64121;48.666;8.114;2023-05-29T03:32:31;5.70;;;4.00;;
75537;SDS011;64121;48.666;8.114;2023-05-29T03:34:56;7.90;;;4.65;;
75537;SDS011;64121;48.666;8.114;2023-05-29T03:37:21;6.35;;;3.85;;
75537;SDS011;64121;48.666;8.114;2023-05-29T03:39:47;8.85;;;4.55;;
75537;SDS011;64121;48.666;8.114;2023-05-29T03:42:12;9.63;;;4.03;;
75537;SDS011;64121;48.666;8.114;2023-05-29T03:44:39;8.15;;;4.25;;
75537;SDS011;64121;48.666;8.114;2023-05-29T03:47:05;7.60;;;4.32;;
75537;SDS011;64121;48.666;8.114;2023-05-29T03:49:30;6.72;;;3.92;;
75537;SDS011;64121;48.666;8.114;2023-05-29T03:51:56;7.43;;;4.28;;
75537;SDS011;64121;48.666;8.114;2023-05-29T03:54:21;8.00;;;4.10;;
75537;SDS011;64121;48.666;8.114;2023-05-29T03:56:46;6.05;;;3.92;;
75537;SDS011;64121;48.666;8.114;2023-05-29T03:59:12;6.43;;;4.47;;
75537;SDS011;64121;48.666;8.114;2023-05-29T04:01:38;8.45;;;4.30;;
75537;SDS011;64121;48.666;8.114;2023-05-29T04:04:04;6.22;;;3.72;;
75537;SDS011;64121;48.666;8.114;2023-05-29T04:06:29;6.35;;;4.03;;
75537;SDS011;64121;48.666;8.114;2023-05-29T04:08:54;6.03;;;3.78;;
75537;SDS011;64121;48.666;8.114;2023-05-29T04:11:20;7.95;;;4.10;;
75537;SDS011;64121;48.666;8.114;2023-05-29T04:13:45;6.03;;;4.15;;
75537;SDS011;64121;48.666;8.114;2023-05-29T04:16:10;8.15;;;4.40;;
75537;SDS011;64121;48.666;8.114;2023-05-29T04:18:37;6.30;;;4.15;;
75537;SDS011;64121;48.666;8.114;2023-05-29T04:21:02;7.35;;;4.20;;
75537;SDS011;64121;48.666;8.114;2023-05-29T04:23:28;8.15;;;4.40;;
75537;SDS011;64121;48.666;8.114;2023-05-29T04:25:53;7.10;;;4.05;;
75537;SDS011;64121;48.666;8.114;2023-05-29T04:28:19;7.55;;;5.13;;
75537;SDS011;64121;48.666;8.114;2023-05-29T04:30:44;10.02;;;4.20;;
75537;SDS011;64121;48.666;8.114;2023-05-29T04:33:09;7.25;;;4.60;;
75537;SDS011;64121;48.666;8.114;2023-05-29T04:35:36;9.00;;;4.72;;
75537;SDS011;64121;48.666;8.114;2023-05-29T04:38:01;6.20;;;3.95;;
75537;SDS011;64121;48.666;8.114;2023-05-29T04:40:27;7.20;;;3.92;;
75537;SDS011;64121;48.666;8.114;2023-05-29T04:42:52;6.35;;;3.85;;
75537;SDS011;64121;48.666;8.114;2023-05-29T04:45:18;5.35;;;3.72;;
75537;SDS011;64121;48.666;8.114;2023-05-29T04:47:44;6.13;;;4.05;;
75537;SDS011;64121;48.666;8.114;2023-05-29T04:50:10;7.20;;;3.90;;
75537;SDS011;64121;48.666;8.114;2023-05-29T04:52:37;6.07;;;4.00;;
75537;SDS011;64121;48.666;8.114;2023-05-29T04:55:02;8.45;;;4.10;;
75537;SDS011;64121;48.666;8.114;2023-05-29T04:57:28;6.82;;;4.20;;
75537;SDS011;64121;48.666;8.114;2023-05-29T04:59:53;7.20;;;3.92;;
75537;SDS011;64121;48.666;8.114;2023-05-29T05:02:19;6.80;;;3.60;;
75537;SDS011;64121;48.666;8.114;2023-05-29T05:04:44;5.65;;;3.50;;
75537;SDS011;64121;48.666;8.114;2023-05-29T05:07:09;6.88;;;3.83;;
75537;SDS011;64121;48.666;8.114;2023-05-29T05:09:36;6.93;;;4.50;;
75537;SDS011;64121;48.666;8.114;2023-05-29T05:12:02;5.97;;;3.83;;
75537;SDS011;64121;48.666;8.114;2023-05-29T05:14:27;6.30;;;4.40;;
75537;SDS011;64121;48.666;8.114;2023-05-29T05:16:53;6.15;;;3.92;;
75537;SDS011;64121;48.666;8.114;2023-05-29T05:19:18;6.78;;;4.80;;
75537;SDS011;64121;48.666;8.114;2023-05-29T05:21:43;5.57;;;4.00;;
75537;SDS011;64121;48.666;8.114;2023-05-29T05:24:09;5.78;;;3.83;;
75537;SDS011;64121;48.666;8.114;2023-05-29T05:26:35;6.38;;;3.90;;
75537;SDS011;64121;48.666;8.114;2023-05-29T05:29:01;5.32;;;3.67;;
75537;SDS011;64121;48.666;8.114;2023-05-29T05:31:26;6.82;;;3.60;;
75537;SDS011;64121;48.666;8.114;2023-05-29T05:33:51;6.95;;;3.78;;
75537;SDS011;64121;48.666;8.114;2023-05-29T05:36:17;6.03;;;3.88;;
75537;SDS011;64121;48.666;8.114;2023-05-29T05:38:42;4.60;;;3.03;;
75537;SDS011;64121;48.666;8.114;2023-05-29T05:41:08;7.63;;;3.92;;
75537;SDS011;64121;48.666;8.114;2023-05-29T05:43:34;5.00;;;3.55;;
75537;SDS011;64121;48.666;8.114;2023-05-29T05:46:00;5.95;;;4.10;;
75537;SDS011;64121;48.666;8.114;2023-05-29T05:48:25;7.15;;;4.15;;
75537;SDS011;64121;48.666;8.114;2023-05-29T05:50:50;6.20;;;3.40;;
75537;SDS011;64121;48.666;8.114;2023-05-29T05:53:16;7.85;;;4.03;;
75537;SDS011;64121;48.666;8.114;2023-05-29T05:55:41;5.32;;;3.55;;
75537;SDS011;64121;48.666;8.114;2023-05-29T05:58:06;5.55;;;3.90;;
75537;SDS011;64121;48.666;8.114;2023-05-29T06:00:33;7.13;;;3.83;;
75537;SDS011;64121;48.666;8.114;2023-05-29T06:02:58;5.63;;;3.58;;
75537;SDS011;64121;48.666;8.114;2023-05-29T06:05:24;7.03;;;3.65;;
75537;SDS011;64121;48.666;8.114;2023-05-29T06:07:49;8.60;;;3.88;;
75537;SDS011;64121;48.666;8.114;2023-05-29T06:10:14;5.95;;;3.63;;
75537;SDS011;64121;48.666;8.114;2023-05-29T06:12:40;5.78;;;3.30;;
75537;SDS011;64121;48.666;8.114;2023-05-29T06:15:06;8.55;;;3.83;;
75537;SDS011;64121;48.666;8.114;2023-05-29T06:17:33;6.00;;;3.60;;
75537;SDS011;64121;48.666;8.114;2023-05-29T06:19:58;4.40;;;3.13;;
75537;SDS011;64121;48.666;8.114;2023-05-29T06:22:24;6.82;;;3.25;;
75537;SDS011;64121;48.666;8.114;2023-05-29T06:24:49;8.68;;;3.53;;
75537;SDS011;64121;48.666;8.114;2023-05-29T06:27:14;5.00;;;3.08;;
75537;SDS011;64121;48.666;8.114;2023-05-29T06:29:40;5.03;;;3.45;;
75537;SDS011;64121;48.666;8.114;2023-05-29T06:32:05;5.75;;;3.15;;
75537;SDS011;64121;48.666;8.114;2023-05-29T06:34:32;8.35;;;3.22;;
75537;SDS011;64121;48.666;8.114;2023-05-29T06:36:57;6.32;;;3.33;;
75537;SDS011;64121;48.666;8.114;2023-05-29T06:39:22;6.18;;;3.47;;
75537;SDS011;64121;48.666;8.114;2023-05-29T06:41:48;7.07;;;3.05;;
75537;SDS011;64121;48.666;8.114;2023-05-29T06:44:13;4.32;;;2.90;;
75537;SDS011;64121;48.666;8.114;2023-05-29T06:46:38;7.03;;;3.63;;
75537;SDS011;64121;48.666;8.114;2023-05-29T06:49:04;4.75;;;3.17;;
75537;SDS011;64121;48.666;8.114;2023-05-29T06:51:30;7.03;;;3.25;;
75537;SDS011;64121;48.666;8.114;2023-05-29T06:53:56;5.43;;;3.55;;
75537;SDS011;64121;48.666;8.114;2023-05-29T06:56:21;4.50;;;3.15;;
75537;SDS011;64121;48.666;8.114;2023-05-29T06:58:46;7.15;;;4.00;;
75537;SDS011;64121;48.666;8.114;2023-05-29T07:01:12;5.80;;;3.63;;
75537;SDS011;64121;48.666;8.114;2023-05-29T07:03:38;8.45;;;3.50;;
75537;SDS011;64121;48.666;8.114;2023-05-29T07:06:03;4.43;;;3.20;;
75537;SDS011;64121;48.666;8.114;2023-05-29T07:08:30;5.78;;;3.13;;
75537;SDS011;64121;48.666;8.114;2023-05-29T07:10:56;4.85;;;3.20;;
75537;SDS011;64121;48.666;8.114;2023-05-29T07:13:21;5.30;;;3.28;;
75537;SDS011;64121;48.666;8.114;2023-05-29T07:15:47;5.82;;;3.80;;
75537;SDS011;64121;48.666;8.114;2023-05-29T07:18:13;6.90;;;3.47;;
75537;SDS011;64121;48.666;8.114;2023-05-29T07:20:39;5.35;;;2.97;;
75537;SDS011;64121;48.666;8.114;2023-05-29T07:23:04;5.55;;;3.13;;
75537;SDS011;64121;48.666;8.114;2023-05-29T07:25:31;5.78;;;3.28;;
75537;SDS011;64121;48.666;8.114;2023-05-29T07:27:56;5.53;;;3.53;;
75537;SDS011;64121;48.666;8.114;2023-05-29T07:30:22;5.22;;;3.22;;
75537;SDS011;64121;48.666;8.114;2023-05-29T07:32:47;6.30;;;3.30;;
75537;SDS011;64121;48.666;8.114;2023-05-29T07:35:12;4.28;;;2.95;;
75537;SDS011;64121;48.666;8.114;2023-05-29T07:37:38;5.38;;;3.25;;
75537;SDS011;64121;48.666;8.114;2023-05-29T07:40:04;7.25;;;3.45;;
75537;SDS011;64121;48.666;8.114;2023-05-29T07:42:31;5.20;;;3.05;;
75537;SDS011;64121;48.666;8.114;2023-05-29T07:44:56;4.15;;;2.90;;
75537;SDS011;64121;48.666;8.114;2023-05-29T07:47:21;5.60;;;3.63;;
75537;SDS011;64121;48.666;8.114;2023-05-29T07:49:47;4.82;;;3.33;;
75537;SDS011;64121;48.666;8.114;2023-05-29T07:52:12;6.68;;;3.03;;
75537;SDS011;64121;48.666;8.114;2023-05-29T07:54:37;6.70;;;3.38;;
75537;SDS011;64121;48.666;8.114;2023-05-29T07:57:03;5.88;;;3.40;;
75537;SDS011;64121;48.666;8.114;2023-05-29T07:59:30;6.05;;;3.17;;
75537;SDS011;64121;48.666;8.114;2023-05-29T08:01:55;6.25;;;3.70;;
75537;SDS011;64121;48.666;8.114;2023-05-29T08:04:20;6.28;;;4.80;;
75537;SDS011;64121;48.666;8.114;2023-05-29T08:06:46;5.50;;;3.63;;
75537;SDS011;64121;48.666;8.114;2023-05-29T08:09:11;6.93;;;3.45;;
75537;SDS011;64121;48.666;8.114;2023-05-29T08:11:37;7.63;;;2.97;;
75537;SDS011;64121;48.666;8.114;2023-05-29T08:14:02;4.90;;;3.28;;
75537;SDS011;64121;48.666;8.114;2023-05-29T08:16:29;4.95;;;2.95;;
75537;SDS011;64121;48.666;8.114;2023-05-29T08:18:54;5.75;;;3.58;;
75537;SDS011;64121;48.666;8.114;2023-05-29T08:21:20;5.82;;;3.03;;
75537;SDS011;64121;48.666;8.114;2023-05-29T08:23:45;4.50;;;3.30;;
75537;SDS011;64121;48.666;8.114;2023-05-29T08:26:10;5.13;;;3.03;;
75537;SDS011;64121;48.666;8.114;2023-05-29T08:28:36;5.05;;;2.83;;
75537;SDS011;64121;48.666;8.114;2023-05-29T08:31:01;4.78;;;3.22;;
75537;SDS011;64121;48.666;8.114;2023-05-29T08:33:28;5.05;;;3.72;;
75537;SDS011;64121;48.666;8.114;2023-05-29T08:35:53;6.75;;;3.65;;
75537;SDS011;64121;48.666;8.114;2023-05-29T08:38:18;5.65;;;3.38;;
75537;SDS011;64121;48.666;8.114;2023-05-29T08:40:44;5.65;;;3.00;;
75537;SDS011;64121;48.666;8.114;2023-05-29T08:43:10;6.68;;;3.22;;
75537;SDS011;64121;48.666;8.114;2023-05-29T08:48:08;6.20;;;3.13;;
75537;SDS011;64121;48.666;8.114;2023-05-29T08:50:36;5.00;;;3.47;;
75537;SDS011;64121;48.666;8.114;2023-05-29T08:53:06;6.05;;;3.35;;
75537;SDS011;64121;48.666;8.114;2023-05-29T08:55:31;5.93;;;3.05;;
75537;SDS011;64121;48.666;8.114;2023-05-29T08:57:58;5.47;;;3.20;;
75537;SDS011;64121;48.666;8.114;2023-05-29T09:00:24;7.63;;;3.60;;
75537;SDS011;64121;48.666;8.114;2023-05-29T09:02:49;6.40;;;3.35;;
75537;SDS011;64121;48.666;8.114;2023-05-29T09:05:15;6.10;;;3.15;;
75537;SDS011;64121;48.666;8.114;2023-05-29T09:07:41;7.45;;;3.75;;
75537;SDS011;64121;48.666;8.114;2023-05-29T09:10:07;14.02;;;4.05;;
75537;SDS011;64121;48.666;8.114;2023-05-29T09:12:34;6.18;;;3.35;;
75537;SDS011;64121;48.666;8.114;2023-05-29T09:15:00;7.25;;;3.50;;
75537;SDS011;64121;48.666;8.114;2023-05-29T09:17:29;8.48;;;3.40;;
75537;SDS011;64121;48.666;8.114;2023-05-29T09:19:55;6.38;;;3.47;;
75537;SDS011;64121;48.666;8.114;2023-05-29T09:22:21;6.60;;;3.20;;
75537;SDS011;64121;48.666;8.114;2023-05-29T09:24:48;6.45;;;3.22;;
75537;SDS011;64121;48.666;8.114;2023-05-29T09:27:13;6.03;;;3.20;;
75537;SDS011;64121;48.666;8.114;2023-05-29T09:29:39;5.97;;;3.63;;
75537;SDS011;64121;48.666;8.114;2023-05-29T09:32:06;6.28;;;3.80;;
75537;SDS011;64121;48.666;8.114;2023-05-29T09:34:32;5.55;;;3.55;;
75537;SDS011;64121;48.666;8.114;2023-05-29T09:37:00;4.78;;;3.60;;
75537;SDS011;64121;48.666;8.114;2023-05-29T09:39:26;6.07;;;4.10;;
75537;SDS011;64121;48.666;8.114;2023-05-29T09:41:53;4.90;;;3.25;;
75537;SDS011;64121;48.666;8.114;2023-05-29T09:44:18;8.50;;;3.75;;
75537;SDS011;64121;48.666;8.114;2023-05-29T09:46:44;8.10;;;3.60;;
75537;SDS011;64121;48.666;8.114;2023-05-29T09:49:11;5.60;;;3.70;;
75537;SDS011;64121;48.666;8.114;2023-05-29T09:51:37;5.57;;;3.50;;
75537;SDS011;64121;48.666;8.114;2023-05-29T09:54:12;7.22;;;4.20;;
75537;SDS011;64121;48.666;8.114;2023-05-29T09:56:38;5.35;;;3.35;;
75537;SDS011;64121;48.666;8.114;2023-05-29T09:59:07;6.85;;;3.60;;
75537;SDS011;64121;48.666;8.114;2023-05-29T10:01:35;6.72;;;3.45;;
75537;SDS011;64121;48.666;8.114;2023-05-29T10:04:00;6.22;;;3.85;;
75537;SDS011;64121;48.666;8.114;2023-05-29T10:06:26;6.32;;;3.78;;
75537;SDS011;64121;48.666;8.114;2023-05-29T10:08:53;7.00;;;3.67;;
75537;SDS011;64121;48.666;8.114;2023-05-29T10:11:19;6.32;;;3.58;;
75537;SDS011;64121;48.666;8.114;2023-05-29T10:13:46;6.38;;;3.75;;
75537;SDS011;64121;48.666;8.114;2023-05-29T10:16:15;5.63;;;3.67;;
75537;SDS011;64121;48.666;8.114;2023-05-29T10:18:42;5.05;;;3.50;;
75537;SDS011;64121;48.666;8.114;2023-05-29T10:21:08;6.47;;;4.20;;
75537;SDS011;64121;48.666;8.114;2023-05-29T10:23:36;7.10;;;4.25;;
75537;SDS011;64121;48.666;8.114;2023-05-29T10:26:06;6.15;;;3.78;;
75537;SDS011;64121;48.666;8.114;2023-05-29T10:28:36;6.97;;;4.00;;
75537;SDS011;64121;48.666;8.114;2023-05-29T10:31:07;6.45;;;3.70;;
75537;SDS011;64121;48.666;8.114;2023-05-29T10:33:44;6.95;;;3.63;;
75537;SDS011;64121;48.666;8.114;2023-05-29T10:36:24;5.10;;;3.53;;
75537;SDS011;64121;48.666;8.114;2023-05-29T10:41:28;5.27;;;3.40;;
75537;SDS011;64121;48.666;8.114;2023-05-29T10:43:55;5.07;;;3.40;;
75537;SDS011;64121;48.666;8.114;2023-05-29T10:46:21;4.65;;;3.60;;
75537;SDS011;64121;48.666;8.114;2023-05-29T10:48:50;6.78;;;3.47;;
75537;SDS011;64121;48.666;8.114;2023-05-29T10:51:24;7.35;;;3.90;;
75537;SDS011;64121;48.666;8.114;2023-05-29T10:53:51;5.75;;;3.83;;
75537;SDS011;64121;48.666;8.114;2023-05-29T10:56:20;4.35;;;3.55;;
75537;SDS011;64121;48.666;8.114;2023-05-29T10:58:49;6.13;;;4.18;;
75537;SDS011;64121;48.666;8.114;2023-05-29T11:01:19;5.82;;;4.00;;
75537;SDS011;64121;48.666;8.114;2023-05-29T11:03:46;5.95;;;3.55;;
75537;SDS011;64121;48.666;8.114;2023-05-29T11:06:18;6.43;;;3.78;;
75537;SDS011;64121;48.666;8.114;2023-05-29T11:08:45;5.25;;;3.55;;
75537;SDS011;64121;48.666;8.114;2023-05-29T11:11:12;7.28;;;4.00;;
75537;SDS011;64121;48.666;8.114;2023-05-29T11:13:38;6.30;;;4.43;;
75537;SDS011;64121;48.666;8.114;2023-05-29T11:16:13;7.60;;;4.05;;
75537;SDS011;64121;48.666;8.114;2023-05-29T11:18:45;4.82;;;3.65;;
75537;SDS011;64121;48.666;8.114;2023-05-29T11:21:15;6.68;;;3.92;;
75537;SDS011;64121;48.666;8.114;2023-05-29T11:23:54;7.32;;;3.67;;
75537;SDS011;64121;48.666;8.114;2023-05-29T11:26:20;5.45;;;3.55;;
75537;SDS011;64121;48.666;8.114;2023-05-29T11:28:48;7.38;;;3.60;;
75537;SDS011;64121;48.666;8.114;2023-05-29T11:31:14;6.13;;;3.63;;
75537;SDS011;64121;48.666;8.114;2023-05-29T11:33:40;6.68;;;4.25;;
75537;SDS011;64121;48.666;8.114;2023-05-29T11:36:12;6.23;;;3.80;;
75537;SDS011;64121;48.666;8.114;2023-05-29T11:38:40;5.32;;;3.40;;
75537;SDS011;64121;48.666;8.114;2023-05-29T11:41:06;5.57;;;3.78;;
75537;SDS011;64121;48.666;8.114;2023-05-29T11:43:31;5.18;;;3.97;;
75537;SDS011;64121;48.666;8.114;2023-05-29T11:45:56;5.35;;;3.60;;
75537;SDS011;64121;48.666;8.114;2023-05-29T11:48:23;6.63;;;3.45;;
75537;SDS011;64121;48.666;8.114;2023-05-29T11:50:48;6.38;;;3.67;;
75537;SDS011;64121;48.666;8.114;2023-05-29T11:53:14;7.15;;;3.85;;
75537;SDS011;64121;48.666;8.114;2023-05-29T11:55:40;6.82;;;3.75;;
75537;SDS011;64121;48.666;8.114;2023-05-29T11:58:06;5.75;;;4.00;;
75537;SDS011;64121;48.666;8.114;2023-05-29T12:00:32;6.55;;;4.20;;
75537;SDS011;64121;48.666;8.114;2023-05-29T12:02:58;6.57;;;4.25;;
75537;SDS011;64121;48.666;8.114;2023-05-29T12:05:24;6.07;;;3.60;;
75537;SDS011;64121;48.666;8.114;2023-05-29T12:07:50;5.15;;;3.72;;
75537;SDS011;64121;48.666;8.114;2023-05-29T12:10:16;5.13;;;3.72;;
75537;SDS011;64121;48.666;8.114;2023-05-29T12:12:46;5.97;;;3.58;;
75537;SDS011;64121;48.666;8.114;2023-05-29T12:15:12;7.00;;;4.03;;
75537;SDS011;64121;48.666;8.114;2023-05-29T12:17:37;6.22;;;3.28;;
75537;SDS011;64121;48.666;8.114;2023-05-29T12:20:03;7.05;;;3.60;;
75537;SDS011;64121;48.666;8.114;2023-05-29T12:22:31;6.38;;;3.60;;
75537;SDS011;64121;48.666;8.114;2023-05-29T12:25:02;4.65;;;2.85;;
75537;SDS011;64121;48.666;8.114;2023-05-29T12:27:29;6.53;;;3.70;;
75537;SDS011;64121;48.666;8.114;2023-05-29T12:30:00;4.68;;;3.80;;
75537;SDS011;64121;48.666;8.114;2023-05-29T12:32:33;4.70;;;3.63;;
75537;SDS011;64121;48.666;8.114;2023-05-29T12:34:59;5.38;;;4.20;;
75537;SDS011;64121;48.666;8.114;2023-05-29T12:37:25;7.72;;;3.95;;
75537;SDS011;64121;48.666;8.114;2023-05-29T12:42:33;4.57;;;3.40;;
75537;SDS011;64121;48.666;8.114;2023-05-29T12:45:02;7.97;;;3.50;;
75537;SDS011;64121;48.666;8.114;2023-05-29T12:47:27;7.85;;;3.50;;
75537;SDS011;64121;48.666;8.114;2023-05-29T12:49:53;7.25;;;3.75;;
75537;SDS011;64121;48.666;8.114;2023-05-29T12:52:20;5.28;;;3.40;;
75537;SDS011;64121;48.666;8.114;2023-05-29T12:54:45;4.50;;;3.25;;
75537;SDS011;64121;48.666;8.114;2023-05-29T12:57:11;6.38;;;3.70;;
75537;SDS011;64121;48.666;8.114;2023-05-29T12:59:36;6.18;;;3.75;;
75537;SDS011;64121;48.666;8.114;2023-05-29T13:02:03;5.53;;;3.40;;
75537;SDS011;64121;48.666;8.114;2023-05-29T13:04:29;4.68;;;3.53;;
75537;SDS011;64121;48.666;8.114;2023-05-29T13:06:54;4.80;;;3.00;;
75537;SDS011;64121;48.666;8.114;2023-05-29T13:09:19;5.47;;;3.22;;
75537;SDS011;64121;48.666;8.114;2023-05-29T13:11:45;6.40;;;3.10;;
75537;SDS011;64121;48.666;8.114;2023-05-29T13:14:10;7.53;;;3.50;;
75537;SDS011;64121;48.666;8.114;2023-05-29T13:16:35;8.85;;;3.53;;
75537;SDS011;64121;48.666;8.114;2023-05-29T13:19:02;6.05;;;3.50;;
75537;SDS011;64121;48.666;8.114;2023-05-29T13:21:27;5.70;;;3.28;;
75537;SDS011;64121;48.666;8.114;2023-05-29T13:23:53;6.97;;;3.72;;
75537;SDS011;64121;48.666;8.114;2023-05-29T13:26:18;4.82;;;3.30;;
75537;SDS011;64121;48.666;8.114;2023-05-29T13:28:43;5.95;;;3.30;;
75537;SDS011;64121;48.666;8.114;2023-05-29T13:31:09;5.25;;;3.40;;
75537;SDS011;64121;48.666;8.114;2023-05-29T13:33:34;5.20;;;2.78;;
75537;SDS011;64121;48.666;8.114;2023-05-29T13:36:01;5.47;;;3.67;;
75537;SDS011;64121;48.666;8.114;2023-05-29T13:38:26;5.75;;;3.75;;
75537;SDS011;64121;48.666;8.114;2023-05-29T13:40:51;4.35;;;3.40;;
75537;SDS011;64121;48.666;8.114;2023-05-29T13:43:17;4.95;;;3.22;;
75537;SDS011;64121;48.666;8.114;2023-05-29T13:45:42;5.38;;;3.67;;
75537;SDS011;64121;48.666;8.114;2023-05-29T13:48:07;4.55;;;3.30;;
75537;SDS011;64121;48.666;8.114;2023-05-29T13:50:33;5.53;;;3.58;;
75537;SDS011;64121;48.666;8.114;2023-05-29T13:52:59;6.78;;;3.13;;
75537;SDS011;64121;48.666;8.114;2023-05-29T13:55:25;6.43;;;3.25;;
75537;SDS011;64121;48.666;8.114;2023-05-29T13:57:50;6.97;;;2.90;;
75537;SDS011;64121;48.666;8.114;2023-05-29T14:00:16;4.43;;;3.42;;
75537;SDS011;64121;48.666;8.114;2023-05-29T14:02:41;6.32;;;3.75;;
75537;SDS011;64121;48.666;8.114;2023-05-29T14:05:07;5.47;;;3.05;;
75537;SDS011;64121;48.666;8.114;2023-05-29T14:07:32;7.10;;;3.30;;
75537;SDS011;64121;48.666;8.114;2023-05-29T14:09:59;4.30;;;3.22;;
75537;SDS011;64121;48.666;8.114;2023-05-29T14:12:24;5.47;;;3.20;;
75537;SDS011;64121;48.666;8.114;2023-05-29T14:14:50;6.00;;;3.45;;
75537;SDS011;64121;48.666;8.114;2023-05-29T14:17:15;4.82;;;3.58;;
75537;SDS011;64121;48.666;8.114;2023-05-29T14:19:40;4.15;;;2.95;;
75537;SDS011;64121;48.666;8.114;2023-05-29T14:22:06;6.30;;;3.33;;
75537;SDS011;64121;48.666;8.114;2023-05-29T14:24:32;4.80;;;3.22;;
75537;SDS011;64121;48.666;8.114;2023-05-29T14:26:58;5.90;;;3.17;;
75537;SDS011;64121;48.666;8.114;2023-05-29T14:29:24;4.18;;;3.20;;
75537;SDS011;64121;48.666;8.114;2023-05-29T14:31:49;8.10;;;3.80;;
75537;SDS011;64121;48.666;8.114;2023-05-29T14:34:15;8.30;;;3.20;;
75537;SDS011;64121;48.666;8.114;2023-05-29T14:36:40;5.25;;;3.17;;
75537;SDS011;64121;48.666;8.114;2023-05-29T14:39:05;4.13;;;3.28;;
75537;SDS011;64121;48.666;8.114;2023-05-29T14:41:31;6.03;;;3.15;;
75537;SDS011;64121;48.666;8.114;2023-05-29T14:43:58;4.57;;;3.25;;
75537;SDS011;64121;48.666;8.114;2023-05-29T14:46:23;4.57;;;2.88;;
75537;SDS011;64121;48.666;8.114;2023-05-29T14:48:49;5.32;;;3.25;;
75537;SDS011;64121;48.666;8.114;2023-05-29T14:51:14;5.10;;;2.60;;
75537;SDS011;64121;48.666;8.114;2023-05-29T14:53:39;4.93;;;3.00;;